Time;durP1;ratioP1;P1;durP2;ratioP2;P2;SDS_P1;SDS_P2;PMS_P1;PMS_P2;Temp;Humidity;BMP_temperature;BMP_pressure;BME280_temperature;BME280_humidity;BME280_pressure;Samples;Min_cycle;Max_cycle;Signal;HPM_P1;HPM_P2
2022/08/09 00:02:01;;;;;;;2.10;1.42;;;;;;;22.21;38.21;100857.03;10466932;28;20048;-72
2022/08/09 00:07:05;;;;;;;1.67;1.48;;;;;;;22.08;38.91;100852.25;10469552;28;20072;-71
2022/08/09 00:12:10;;;;;;;2.92;1.40;;;;;;;22.09;39.04;100847.69;10465446;28;20048;-71
2022/08/09 00:17:24;;;;;;;2.55;1.02;;;;;;;22.06;38.76;100847.00;10471038;28;20477;-72
2022/08/09 00:22:45;;;;;;;2.80;1.65;;;;;;;21.92;39.22;100834.28;10464081;28;20503;-71
2022/08/09 00:27:47;;;;;;;1.70;1.10;;;;;;;21.97;39.09;100848.13;10465385;28;20486;-72
2022/08/09 00:32:49;;;;;;;1.55;1.45;;;;;;;21.94;39.01;100828.69;10446408;28;20055;-71
2022/08/09 00:37:51;;;;;;;3.55;1.38;;;;;;;21.83;39.51;100828.09;10468593;28;20052;-73
2022/08/09 00:42:53;;;;;;;4.33;2.80;;;;;;;21.68;39.67;100821.81;10462379;28;20311;-70
2022/08/09 00:48:15;;;;;;;2.17;1.35;;;;;;;21.64;39.63;100834.88;10472005;28;20724;-70
2022/08/09 00:53:20;;;;;;;2.20;1.25;;;;;;;21.53;39.98;100828.00;10474576;28;20062;-71
2022/08/09 00:58:24;;;;;;;1.42;1.25;;;;;;;21.44;39.88;100829.06;10465444;28;20760;-71
2022/08/09 01:03:53;;;;;;;1.67;1.40;;;;;;;21.33;40.58;100833.06;10479921;28;20048;-71
2022/08/09 01:09:18;;;;;;;1.83;1.50;;;;;;;21.24;41.02;100844.09;10479396;28;20051;-71
2022/08/09 01:14:41;;;;;;;1.83;1.60;;;;;;;21.14;40.85;100836.22;10474185;28;20702;-72
2022/08/09 01:20:07;;;;;;;5.03;2.05;;;;;;;21.17;41.17;100839.41;10471643;28;20044;-71
2022/08/09 01:25:20;;;;;;;2.53;1.70;;;;;;;21.07;41.43;100832.53;10475537;28;20032;-72
2022/08/09 01:30:24;;;;;;;2.43;1.70;;;;;;;21.09;41.48;100834.06;10476416;28;20042;-71
2022/08/09 01:36:00;;;;;;;2.22;1.80;;;;;;;21.04;41.21;100831.03;10476530;28;20078;-72
2022/08/09 01:41:15;;;;;;;2.35;1.77;;;;;;;20.99;41.67;100841.56;10437239;28;20465;-73
2022/08/09 01:46:29;;;;;;;2.30;1.70;;;;;;;20.80;42.16;100838.25;10476887;28;20055;-73
2022/08/09 01:51:34;;;;;;;2.97;1.92;;;;;;;20.71;41.85;100833.91;10465469;28;20040;-70
2022/08/09 01:56:39;;;;;;;2.28;1.85;;;;;;;20.52;42.68;100831.59;10475603;28;20052;-71
2022/08/09 02:01:43;;;;;;;4.15;2.10;;;;;;;20.42;42.94;100824.53;10485162;28;20141;-70
2022/08/09 02:07:11;;;;;;;1.98;1.63;;;;;;;20.46;43.41;100831.28;10490780;28;20059;-72
2022/08/09 02:12:21;;;;;;;3.53;1.98;;;;;;;20.47;43.24;100829.41;10496259;28;20086;-73
2022/08/09 02:17:26;;;;;;;2.28;1.70;;;;;;;20.60;42.97;100842.38;10511526;28;20525;-72
2022/08/09 02:22:55;;;;;;;5.70;2.20;;;;;;;20.62;43.13;100845.75;10491943;28;20040;-72
2022/08/09 02:28:04;;;;;;;4.25;2.28;;;;;;;20.22;43.66;100851.13;10470375;28;20040;-71
2022/08/09 02:33:17;;;;;;;3.08;1.65;;;;;;;20.26;44.27;100852.44;10472725;28;20151;-70
2022/08/09 02:38:25;;;;;;;3.40;2.05;;;;;;;20.16;44.55;100840.13;10458059;28;20055;-71
2022/08/09 02:43:33;;;;;;;3.88;1.73;;;;;;;20.29;43.99;100845.84;10477849;28;20795;-70
2022/08/09 02:49:04;;;;;;;3.13;2.30;;;;;;;20.28;44.44;100846.84;10466273;28;20036;-70
2022/08/09 02:54:09;;;;;;;1.65;1.38;;;;;;;20.27;44.26;100847.91;10458188;28;20047;-70
2022/08/09 02:59:14;;;;;;;3.58;1.80;;;;;;;20.16;44.96;100840.13;10470544;28;20056;-70
2022/08/09 03:04:36;;;;;;;4.30;2.30;;;;;;;20.07;45.49;100832.06;10469438;28;20570;-72
2022/08/09 03:09:40;;;;;;;3.17;1.80;;;;;;;20.07;45.44;100840.16;10470079;28;20431;-71
2022/08/09 03:14:44;;;;;;;4.55;2.65;;;;;;;20.09;45.70;100840.81;10470205;28;20064;-72
2022/08/09 03:19:47;;;;;;;2.13;1.93;;;;;;;20.00;45.71;100846.44;10469688;28;20482;-71
2022/08/09 03:25:04;;;;;;;3.58;1.77;;;;;;;19.99;46.11;100839.31;10469652;28;20731;-71
2022/08/09 03:30:23;;;;;;;2.40;2.13;;;;;;;20.00;45.88;100839.16;10468822;28;20455;-71
2022/08/09 03:35:36;;;;;;;3.10;2.30;;;;;;;20.07;46.09;100852.81;10474563;28;20048;-70
2022/08/09 03:40:57;;;;;;;3.38;2.42;;;;;;;20.02;46.12;100856.03;10468651;28;20048;-71
2022/08/09 03:46:00;;;;;;;4.38;2.05;;;;;;;20.00;46.43;100857.25;10461514;28;20094;-71
2022/08/09 03:51:21;;;;;;;2.90;2.20;;;;;;;19.94;46.46;100864.16;10455676;28;20119;-72
2022/08/09 03:56:44;;;;;;;3.67;2.13;;;;;;;20.03;45.84;100863.13;10473181;28;20056;-71
2022/08/09 04:01:49;;;;;;;5.38;2.20;;;;;;;20.06;46.24;100873.59;10463264;28;20045;-70
2022/08/09 04:06:50;;;;;;;4.75;2.10;;;;;;;19.92;46.81;100872.44;10453733;28;20055;-71
2022/08/09 04:11:53;;;;;;;3.53;2.60;;;;;;;19.88;46.64;100881.06;10452579;28;20078;-71
2022/08/09 04:16:56;;;;;;;2.35;2.15;;;;;;;19.74;47.13;100869.88;10470512;28;20049;-71
2022/08/09 04:21:58;;;;;;;2.97;2.30;;;;;;;19.78;47.27;100883.91;10468302;28;20052;-70
2022/08/09 04:26:59;;;;;;;3.67;2.33;;;;;;;19.81;47.13;100882.75;10474964;28;22235;-71
2022/08/09 04:32:01;;;;;;;3.92;2.13;;;;;;;19.81;47.36;100885.44;10476373;28;20137;-71
2022/08/09 04:37:06;;;;;;;5.00;2.70;;;;;;;19.80;47.50;100892.69;10478277;28;20580;-71
2022/08/09 04:42:08;;;;;;;3.55;1.98;;;;;;;19.85;47.44;100894.91;10474573;28;20059;-73
2022/08/09 04:47:09;;;;;;;2.67;2.35;;;;;;;19.91;47.25;100899.63;10473686;28;20048;-72
2022/08/09 04:52:11;;;;;;;2.60;2.08;;;;;;;19.76;47.70;100908.34;10473525;28;20048;-71
2022/08/09 04:57:28;;;;;;;3.42;2.50;;;;;;;19.88;47.17;100916.16;10434629;28;20072;-72
2022/08/09 05:02:49;;;;;;;3.00;2.10;;;;;;;19.67;47.51;100912.06;10445600;28;20173;-71
2022/08/09 05:07:53;;;;;;;3.65;2.33;;;;;;;19.59;48.56;100922.84;10457511;28;20058;-69
2022/08/09 05:12:56;;;;;;;3.83;2.57;;;;;;;19.74;48.28;100929.28;10460034;28;20191;-71
2022/08/09 05:18:00;;;;;;;4.00;2.28;;;;;;;19.86;48.08;100929.84;10461376;28;20055;-72
2022/08/09 05:23:22;;;;;;;3.47;2.15;;;;;;;19.99;47.34;100937.44;10458236;28;20518;-72
2022/08/09 05:28:43;;;;;;;3.92;2.13;;;;;;;20.03;47.21;100932.56;10455476;28;20053;-72
2022/08/09 05:33:45;;;;;;;3.85;2.15;;;;;;;20.11;47.18;100940.66;10458738;28;20722;-71
2022/08/09 05:38:46;;;;;;;6.78;3.20;;;;;;;20.18;46.79;100952.47;10449409;28;20059;-71
2022/08/09 05:43:49;;;;;;;3.57;2.23;;;;;;;20.22;47.08;100950.25;10459758;28;20055;-71
2022/08/09 05:48:51;;;;;;;4.05;2.35;;;;;;;20.36;46.85;100955.00;10440911;28;20757;-72
2022/08/09 05:53:59;;;;;;;5.45;2.38;;;;;;;20.43;47.25;100949.72;10441255;28;20052;-69
2022/08/09 05:59:01;;;;;;;3.20;2.20;;;;;;;20.46;46.86;100947.56;10443173;28;20706;-73
2022/08/09 06:04:02;;;;;;;2.72;1.85;;;;;;;20.60;46.68;100961.38;10463158;28;20427;-71
2022/08/09 06:09:06;;;;;;;2.35;1.90;;;;;;;20.79;46.18;100971.00;10449435;28;20052;-73
2022/08/09 06:14:27;;;;;;;3.65;2.33;;;;;;;20.92;46.43;100970.47;10471449;28;20049;-73
2022/08/09 06:19:28;;;;;;;4.13;1.95;;;;;;;21.11;45.80;100986.28;10461732;28;20055;-71
2022/08/09 06:24:32;;;;;;;2.88;1.73;;;;;;;21.25;45.38;100984.69;10455890;28;20135;-72
2022/08/09 06:29:35;;;;;;;2.97;1.73;;;;;;;21.32;45.63;100982.16;10457544;28;20217;-70
2022/08/09 06:34:56;;;;;;;5.88;1.90;;;;;;;21.46;44.60;100988.69;10452313;28;20485;-73
2022/08/09 06:39:58;;;;;;;4.05;2.20;;;;;;;21.64;44.78;101001.97;10462793;28;20573;-72
2022/08/09 06:45:04;;;;;;;3.10;1.90;;;;;;;21.79;44.05;100994.78;10458753;28;20146;-71
2022/08/09 06:50:25;;;;;;;5.57;2.03;;;;;;;22.07;43.81;100997.78;10450471;28;20060;-71
2022/08/09 06:55:32;;;;;;;5.15;2.13;;;;;;;22.33;42.86;100991.16;10463476;28;20055;-71
2022/08/09 07:00:35;;;;;;;6.18;2.20;;;;;;;22.55;42.21;101003.03;10461106;28;20089;-70
2022/08/09 07:05:57;;;;;;;4.00;2.05;;;;;;;22.66;41.90;101000.88;10462842;28;20407;-72
2022/08/09 07:11:04;;;;;;;5.03;2.10;;;;;;;22.87;41.06;100998.28;10459676;28;20056;-72
2022/08/09 07:16:07;;;;;;;3.50;1.73;;;;;;;22.94;41.20;101009.25;10458774;28;20506;-74
2022/08/09 07:21:28;;;;;;;3.58;1.85;;;;;;;23.25;40.70;101006.34;10485023;28;20044;-74
2022/08/09 07:26:34;;;;;;;6.95;2.00;;;;;;;23.36;40.41;101007.75;10508259;28;20044;-73
2022/08/09 07:31:35;;;;;;;2.92;1.70;;;;;;;23.65;39.78;101008.72;10493715;28;20048;-72
2022/08/09 07:36:45;;;;;;;4.13;1.75;;;;;;;23.83;39.74;101013.72;10466560;28;20075;-73
2022/08/09 07:41:47;;;;;;;4.10;1.83;;;;;;;23.93;39.26;101008.84;10458238;28;20158;-72
2022/08/09 07:46:49;;;;;;;2.50;1.67;;;;;;;24.16;38.73;101007.81;10458591;28;20203;-73
2022/08/09 07:51:52;;;;;;;2.35;1.50;;;;;;;24.46;38.04;101002.22;10454819;28;20047;-71
2022/08/09 07:57:13;;;;;;;5.45;2.47;;;;;;;24.73;37.74;101011.44;10465383;28;20060;-71
2022/08/09 08:02:15;;;;;;;2.90;1.77;;;;;;;24.59;38.64;101007.78;10463622;28;20056;-71
2022/08/09 08:07:20;;;;;;;4.00;1.77;;;;;;;25.10;37.50;101011.25;10469931;28;20139;-72
2022/08/09 08:12:43;;;;;;;3.00;1.52;;;;;;;25.38;37.07;101009.31;10470817;28;20047;-72
2022/08/09 08:17:50;;;;;;;2.40;1.50;;;;;;;25.71;36.88;101011.31;10452639;28;20052;-72
2022/08/09 08:22:58;;;;;;;2.45;1.90;;;;;;;25.82;35.96;101011.75;10462164;28;20537;-74
2022/08/09 08:28:16;;;;;;;1.80;1.48;;;;;;;25.85;35.43;101004.03;10463518;28;20656;-71
2022/08/09 08:33:32;;;;;;;1.80;1.27;;;;;;;25.84;35.07;101002.34;10453073;28;20074;-74
2022/08/09 08:38:53;;;;;;;3.20;1.55;;;;;;;26.01;35.13;100994.63;10464294;28;20056;-73
2022/08/09 08:44:00;;;;;;;3.05;1.25;;;;;;;26.29;35.03;101010.00;10449232;28;20048;-73
2022/08/09 08:49:06;;;;;;;4.82;1.48;;;;;;;26.36;32.42;101008.13;10463633;28;20087;-70
2022/08/09 08:54:13;;;;;;;4.43;2.08;;;;;;;26.94;32.48;101001.97;10463969;28;20047;-73
2022/08/09 08:59:30;;;;;;;3.00;1.45;;;;;;;27.16;31.88;100996.25;10457600;28;20052;-71
2022/08/09 09:04:47;;;;;;;2.22;1.30;;;;;;;27.48;31.25;100999.91;10462291;28;20054;-73
2022/08/09 09:09:55;;;;;;;1.83;1.10;;;;;;;27.95;30.93;100996.91;10463408;28;20101;-72
2022/08/09 09:15:05;;;;;;;3.60;1.07;;;;;;;28.03;29.88;100996.66;10451231;28;20493;-73
2022/08/09 09:20:09;;;;;;;3.22;1.40;;;;;;;28.18;29.64;101007.31;10445566;28;20048;-73
2022/08/09 09:25:32;;;;;;;3.58;0.98;;;;;;;28.38;28.33;100998.09;10465495;28;20788;-73
2022/08/09 09:30:56;;;;;;;4.57;1.25;;;;;;;28.80;28.81;100990.13;10449501;28;20052;-73
2022/08/09 09:35:59;;;;;;;1.02;0.93;;;;;;;29.33;28.47;100988.69;10464657;28;20054;-74
2022/08/09 09:41:27;;;;;;;3.75;1.40;;;;;;;29.21;28.15;100983.16;10468384;28;20111;-75
2022/08/09 09:46:48;;;;;;;3.33;1.25;;;;;;;29.67;28.20;100994.56;10452219;28;20052;-73
2022/08/09 09:52:01;;;;;;;4.55;1.00;;;;;;;30.40;26.33;100991.78;10469511;28;20458;-74
2022/08/09 09:57:22;;;;;;;3.92;1.30;;;;;;;30.82;25.88;100983.44;10477526;28;20048;-74
2022/08/09 10:02:44;;;;;;;1.50;0.85;;;;;;;31.18;25.38;100984.22;10463251;28;20048;-72
2022/08/09 10:07:47;;;;;;;1.52;1.23;;;;;;;31.47;24.18;100976.03;10468416;28;20044;-71
2022/08/09 10:13:08;;;;;;;3.00;0.90;;;;;;;31.48;25.29;100974.91;10500981;28;20048;-73
2022/08/09 10:18:11;;;;;;;5.28;0.98;;;;;;;31.42;25.08;100964.91;10519824;28;20036;-73
2022/08/09 10:23:18;;;;;;;3.17;1.10;;;;;;;31.61;24.82;100960.91;10511697;28;20077;-73
2022/08/09 10:28:22;;;;;;;2.70;1.00;;;;;;;32.20;23.33;100954.22;10527912;28;20118;-73
2022/08/09 10:33:27;;;;;;;3.97;0.80;;;;;;;33.96;21.47;100953.41;10521233;28;20024;-75
2022/08/09 10:38:49;;;;;;;2.80;0.85;;;;;;;36.17;19.72;100950.72;10512333;28;20108;-76
2022/08/09 10:43:59;;;;;;;3.58;1.20;;;;;;;35.22;20.63;100946.41;10518955;28;20042;-76
2022/08/09 10:49:19;;;;;;;1.55;0.50;;;;;;;34.95;20.54;100952.13;10503478;28;20139;-76
2022/08/09 10:54:23;;;;;;;0.98;0.68;;;;;;;34.69;20.81;100950.03;10502359;28;20276;-77
2022/08/09 10:59:29;;;;;;;3.20;0.70;;;;;;;34.55;19.89;100945.28;10503028;28;20028;-75
2022/08/09 11:04:34;;;;;;;1.40;0.65;;;;;;;34.56;20.70;100927.59;10481356;28;20028;-77
2022/08/09 11:09:41;;;;;;;1.55;0.50;;;;;;;34.59;20.78;100927.06;10486921;28;20114;-75
2022/08/09 11:14:54;;;;;;;2.97;0.43;;;;;;;35.40;19.45;100914.66;10504910;28;20032;-75
2022/08/09 11:20:08;;;;;;;2.65;0.50;;;;;;;35.58;18.95;100916.94;10504040;28;20099;-74
2022/08/09 11:25:25;;;;;;;0.70;0.32;;;;;;;35.94;18.42;100913.34;10508927;28;20056;-76
2022/08/09 11:30:46;;;;;;;2.80;0.60;;;;;;;35.48;18.48;100914.13;10496883;28;20040;-74
2022/08/09 11:35:54;;;;;;;3.00;0.50;;;;;;;36.03;17.97;100919.16;10518592;28;20104;-75
2022/08/09 11:40:56;;;;;;;1.60;0.40;;;;;;;35.79;18.27;100911.41;10496143;28;20101;-73
2022/08/09 11:46:01;;;;;;;1.55;0.57;;;;;;;36.58;18.19;100906.31;10462907;28;20178;-76
2022/08/09 11:51:04;;;;;;;4.05;0.60;;;;;;;36.72;17.72;100909.31;10446037;28;20053;-75
2022/08/09 11:56:26;;;;;;;1.05;0.30;;;;;;;36.21;17.24;100895.56;10459546;28;20060;-77
2022/08/09 12:01:43;;;;;;;1.50;0.40;;;;;;;36.73;16.97;100912.91;10449354;28;20051;-75
2022/08/09 12:07:05;;;;;;;3.88;0.90;;;;;;;36.48;16.49;100902.75;10470537;28;20056;-74
2022/08/09 12:12:14;;;;;;;1.50;0.30;;;;;;;36.08;18.08;100908.09;10449195;28;20053;-75
2022/08/09 12:17:21;;;;;;;1.30;0.40;;;;;;;35.56;17.54;100896.16;10450666;28;20061;-75
2022/08/09 12:22:43;;;;;;;1.98;0.43;;;;;;;36.02;17.42;100889.81;10453878;28;20044;-74
2022/08/09 12:27:44;;;;;;;0.98;0.50;;;;;;;36.02;17.25;100892.59;10462480;28;20173;-75
2022/08/09 12:33:06;;;;;;;1.00;0.60;;;;;;;35.58;18.08;100875.41;10450519;28;20399;-75
2022/08/09 12:38:27;;;;;;;3.35;0.65;;;;;;;35.54;17.66;100882.59;10440204;28;20052;-74
2022/08/09 12:43:39;;;;;;;2.47;0.57;;;;;;;35.29;17.39;100868.72;10457337;28;20370;-74
2022/08/09 12:49:01;;;;;;;1.00;0.40;;;;;;;35.00;17.33;100861.72;10467937;28;20055;-74
2022/08/09 12:54:04;;;;;;;1.42;0.50;;;;;;;34.85;17.82;100870.81;10443504;28;20056;-75
2022/08/09 12:59:10;;;;;;;1.38;0.35;;;;;;;34.74;18.78;100857.19;10446608;28;20040;-75
2022/08/09 13:04:14;;;;;;;1.00;0.43;;;;;;;34.59;18.38;100866.25;10456437;28;20058;-74
2022/08/09 13:09:36;;;;;;;0.68;0.47;;;;;;;34.41;18.34;100862.88;10452170;28;20051;-74
2022/08/09 13:14:41;;;;;;;1.08;0.60;;;;;;;34.26;19.41;100868.28;10464026;28;20044;-74
2022/08/09 13:19:55;;;;;;;;;;;;;;;34.22;19.04;100861.63;10461043;28;20055;-74
2022/08/09 13:25:13;;;;;;;1.95;0.47;;;;;;;34.15;19.59;100854.38;10459609;28;20753;-74
2022/08/09 13:30:17;;;;;;;1.70;0.50;;;;;;;34.28;19.10;100855.06;10458627;28;20052;-73
2022/08/09 13:35:38;;;;;;;1.40;1.02;;;;;;;33.91;19.19;100839.31;10445596;28;20545;-75
2022/08/09 13:41:00;;;;;;;2.45;0.95;;;;;;;33.44;19.07;100835.34;10447329;28;20355;-75
2022/08/09 13:46:21;;;;;;;2.65;0.60;;;;;;;33.46;19.37;100839.53;10460123;28;20126;-73
2022/08/09 13:51:43;;;;;;;;;;;;;;;33.19;19.78;100833.16;10462712;28;20052;-73
2022/08/09 13:57:01;;;;;;;1.83;1.10;;;;;;;33.26;19.94;100825.53;10458641;28;20033;-74
2022/08/09 14:02:07;;;;;;;0.98;0.50;;;;;;;33.20;19.94;100826.59;10443864;28;20049;-73
2022/08/09 14:07:10;;;;;;;1.38;0.70;;;;;;;32.95;20.13;100825.19;10456211;28;20040;-73
2022/08/09 14:12:11;;;;;;;1.27;0.57;;;;;;;32.84;20.42;100821.50;10454242;28;20119;-75
2022/08/09 14:17:16;;;;;;;2.72;0.77;;;;;;;32.85;20.61;100820.41;10433826;28;20077;-74
2022/08/09 14:22:23;;;;;;;2.75;0.93;;;;;;;32.69;20.04;100822.16;10452039;28;21170;-73
2022/08/09 14:27:25;;;;;;;2.97;0.57;;;;;;;32.40;20.57;100811.31;10438567;28;20092;-75
2022/08/09 14:32:27;;;;;;;1.02;0.60;;;;;;;32.41;20.72;100807.47;10457427;28;20056;-73
2022/08/09 14:37:39;;;;;;;3.20;0.70;;;;;;;32.52;21.12;100813.94;10444914;28;20539;-74
2022/08/09 14:43:00;;;;;;;2.38;0.60;;;;;;;32.36;20.70;100809.31;10458032;28;20052;-74
2022/08/09 14:48:03;;;;;;;4.00;0.98;;;;;;;32.26;20.83;100810.00;10461380;28;20113;-74
2022/08/09 14:53:08;;;;;;;;;;;;;;;32.17;20.73;100806.88;10481503;28;20063;-75
2022/08/09 14:58:13;;;;;;;3.22;0.77;;;;;;;32.03;21.46;100806.34;10501482;28;19927;-79
2022/08/09 15:03:15;;;;;;;1.88;0.70;;;;;;;31.99;21.07;100810.72;10496705;28;20075;-76
2022/08/09 15:08:21;;;;;;;2.92;0.63;;;;;;;31.84;21.07;100792.06;10474353;28;20122;-77
2022/08/09 15:13:24;;;;;;;2.17;1.00;;;;;;;31.72;21.04;100792.16;10473783;28;20053;-77
2022/08/09 15:18:30;;;;;;;2.38;0.70;;;;;;;31.81;21.41;100781.56;10474969;28;20044;-77
2022/08/09 15:23:31;;;;;;;;;;;;;;;31.77;20.96;100785.91;10459737;28;20644;-76
2022/08/09 15:28:53;;;;;;;2.90;0.68;;;;;;;31.62;21.23;100789.25;10470820;28;19929;-76
2022/08/09 15:33:55;;;;;;;1.48;0.70;;;;;;;31.51;21.71;100795.63;10454908;28;20067;-76
2022/08/09 15:39:19;;;;;;;2.88;1.00;;;;;;;31.28;21.68;100791.94;10464310;28;20175;-76
2022/08/09 15:44:20;;;;;;;3.00;0.80;;;;;;;31.02;22.14;100785.19;10462581;28;20093;-77
2022/08/09 15:49:23;;;;;;;2.75;1.42;;;;;;;30.88;22.24;100781.84;10472675;28;20525;-76
2022/08/09 15:54:32;;;;;;;2.45;0.90;;;;;;;30.84;22.35;100773.28;10467667;28;20051;-74
2022/08/09 15:59:49;;;;;;;1.23;0.70;;;;;;;30.83;22.40;100773.53;10467374;28;20052;-75
2022/08/09 16:04:52;;;;;;;2.85;0.70;;;;;;;30.84;22.62;100766.97;10473340;28;20088;-76
2022/08/09 16:09:53;;;;;;;2.97;0.90;;;;;;;30.78;22.46;100762.44;10473362;28;20071;-76
2022/08/09 16:15:06;;;;;;;;;;;;;;;30.78;22.33;100773.44;10459899;28;20048;-78
2022/08/09 16:20:29;;;;;;;1.13;0.90;;;;;;;30.71;22.39;100767.25;10453672;28;19920;-78
2022/08/09 16:25:30;;;;;;;2.45;0.70;;;;;;;30.58;22.51;100763.72;10456505;28;20068;-78
2022/08/09 16:30:41;;;;;;;4.05;0.95;;;;;;;30.58;22.89;100766.47;10471808;28;20497;-78
2022/08/09 16:35:46;;;;;;;2.97;0.85;;;;;;;30.44;22.70;100762.31;10444325;28;20043;-77
2022/08/09 16:41:00;;;;;;;2.03;1.52;;;;;;;30.38;22.93;100763.28;10465620;28;20048;-76
2022/08/09 16:46:05;;;;;;;2.03;0.90;;;;;;;30.23;23.15;100770.09;10473619;28;20036;-77
2022/08/09 16:51:06;;;;;;;3.13;1.42;;;;;;;30.07;23.11;100768.09;10473478;28;20573;-76
2022/08/09 16:56:15;;;;;;;2.17;0.73;;;;;;;30.03;23.21;100772.41;10471405;28;20052;-76
2022/08/09 17:01:20;;;;;;;2.42;0.52;;;;;;;30.02;23.50;100770.75;10474858;28;20050;-77
2022/08/09 17:06:25;;;;;;;2.05;0.90;;;;;;;29.98;23.42;100770.38;10470830;28;20229;-75
2022/08/09 17:11:32;;;;;;;2.53;1.00;;;;;;;29.90;23.93;100763.34;10466504;28;20036;-74
2022/08/09 17:16:42;;;;;;;1.65;0.95;;;;;;;29.80;23.73;100766.66;10473316;28;20054;-76
2022/08/09 17:21:44;;;;;;;1.10;0.90;;;;;;;29.67;23.69;100764.16;10455949;28;20848;-74
2022/08/09 17:26:47;;;;;;;;;;;;;;;29.60;23.86;100767.00;10476854;28;20077;-76
2022/08/09 17:31:54;;;;;;;2.00;0.80;;;;;;;29.48;23.59;100782.63;10454504;28;19928;-75
2022/08/09 17:36:55;;;;;;;1.90;1.13;;;;;;;29.42;23.90;100783.56;10460195;28;20213;-74
2022/08/09 17:42:02;;;;;;;2.60;1.10;;;;;;;29.34;24.09;100783.94;10451785;28;20565;-75
2022/08/09 17:47:04;;;;;;;1.83;0.87;;;;;;;29.24;24.19;100790.81;10458533;28;20050;-76
2022/08/09 17:52:10;;;;;;;1.50;0.80;;;;;;;29.10;24.08;100787.41;10461932;28;20052;-75
2022/08/09 17:57:22;;;;;;;1.50;1.10;;;;;;;29.04;24.55;100793.00;10467640;28;20051;-74
2022/08/09 18:02:46;;;;;;;1.90;1.48;;;;;;;28.88;24.83;100805.44;10466865;28;20052;-74
2022/08/09 18:07:59;;;;;;;2.42;2.20;;;;;;;28.79;24.72;100807.66;10455292;28;20032;-75
2022/08/09 18:13:03;;;;;;;1.38;1.27;;;;;;;28.68;24.88;100801.06;10451930;28;20059;-78
2022/08/09 18:18:24;;;;;;;1.60;1.30;;;;;;;28.56;24.86;100792.75;10448455;28;20107;-75
2022/08/09 18:23:33;;;;;;;2.08;1.20;;;;;;;28.42;24.95;100802.22;10467787;28;20044;-77
2022/08/09 18:28:54;;;;;;;2.45;1.25;;;;;;;28.27;25.13;100804.47;10451318;28;20052;-76
2022/08/09 18:34:16;;;;;;;8.98;7.80;;;;;;;28.20;25.30;100810.84;10451593;28;20126;-75
2022/08/09 18:39:24;;;;;;;9.02;8.13;;;;;;;28.12;25.88;100813.03;10452825;28;20752;-75
2022/08/09 18:44:25;;;;;;;2.28;1.40;;;;;;;27.98;26.39;100806.88;10456434;28;20078;-76
2022/08/09 18:49:27;;;;;;;2.78;2.17;;;;;;;27.83;26.16;100808.06;10474179;28;20272;-78
2022/08/09 18:54:32;;;;;;;2.85;1.48;;;;;;;27.71;25.99;100814.47;10458447;28;20570;-75
2022/08/09 18:59:35;;;;;;;2.67;1.47;;;;;;;27.60;26.41;100826.97;10473334;28;20044;-75
2022/08/09 19:04:48;;;;;;;2.75;1.30;;;;;;;27.47;26.29;100834.22;10471191;28;20749;-75
2022/08/09 19:10:10;;;;;;;1.65;1.02;;;;;;;27.36;26.54;100839.56;10468164;28;20054;-77
2022/08/09 19:15:18;;;;;;;4.32;1.58;;;;;;;27.24;27.01;100842.13;10453928;28;20299;-77
2022/08/09 19:20:19;;;;;;;1.33;1.20;;;;;;;27.16;26.76;100843.22;10452440;28;20570;-75
2022/08/09 19:25:22;;;;;;;2.88;1.40;;;;;;;27.09;27.11;100848.72;10438861;28;20447;-74
2022/08/09 19:30:44;;;;;;;1.65;1.15;;;;;;;27.11;27.25;100859.41;10453749;28;20052;-75
2022/08/09 19:35:46;;;;;;;2.53;1.13;;;;;;;27.10;27.08;100866.78;10460003;28;20044;-75
2022/08/09 19:41:00;;;;;;;3.58;1.15;;;;;;;27.07;26.91;100872.69;10459397;28;20078;-74
2022/08/09 19:46:02;;;;;;;1.55;1.30;;;;;;;26.91;27.17;100856.81;10452071;28;20060;-76
2022/08/09 19:51:04;;;;;;;1.75;1.08;;;;;;;26.85;27.68;100869.44;10454489;28;20059;-75
2022/08/09 19:56:06;;;;;;;2.27;1.40;;;;;;;26.79;27.61;100879.31;10450390;28;20669;-74
2022/08/09 20:01:16;;;;;;;3.40;1.65;;;;;;;26.69;27.68;100886.28;10421286;28;20229;-76
2022/08/09 20:06:17;;;;;;;2.73;1.20;;;;;;;26.62;27.93;100886.28;10436412;28;20053;-73
2022/08/09 20:11:27;;;;;;;3.00;1.25;;;;;;;26.52;29.78;100897.63;10447605;28;20061;-74
2022/08/09 20:16:48;;;;;;;4.35;1.33;;;;;;;26.44;29.30;100901.44;10448876;28;20048;-75
2022/08/09 20:21:55;;;;;;;2.70;1.23;;;;;;;26.36;29.95;100906.28;10425949;28;20121;-73
2022/08/09 20:27:02;;;;;;;2.05;1.48;;;;;;;26.19;30.23;100897.69;10448921;28;20045;-73
2022/08/09 20:32:11;;;;;;;2.20;1.60;;;;;;;26.04;30.63;100896.03;10470974;28;20055;-76
2022/08/09 20:37:32;;;;;;;3.28;1.30;;;;;;;25.99;30.85;100906.75;10471235;28;20064;-73
2022/08/09 20:42:57;;;;;;;1.80;1.30;;;;;;;25.89;29.90;100911.72;10472077;28;20063;-74
2022/08/09 20:48:19;;;;;;;2.67;1.70;;;;;;;25.69;30.87;100915.28;10472286;28;20533;-74
2022/08/09 20:53:21;;;;;;;1.88;1.40;;;;;;;25.60;30.97;100919.25;10471852;28;20074;-74
2022/08/09 20:58:38;;;;;;;3.63;1.48;;;;;;;25.53;30.89;100921.94;10459633;28;20201;-75
2022/08/09 21:03:45;;;;;;;2.35;1.38;;;;;;;25.47;31.24;100921.94;10475305;28;20060;-75
2022/08/09 21:09:06;;;;;;;4.97;1.50;;;;;;;25.34;30.92;100929.03;10486150;28;20052;-75
2022/08/09 21:14:14;;;;;;;3.08;1.30;;;;;;;25.29;31.09;100930.66;10480535;28;20483;-74
2022/08/09 21:19:18;;;;;;;;;;;;;;;25.20;31.72;100928.09;10471051;28;20048;-74
2022/08/09 21:25:49;;;;;;;3.00;1.67;;;;;;;25.09;31.02;100922.44;10468865;28;20138;-73
2022/08/09 21:30:01;;;;;;;2.50;1.42;;;;;;;25.03;31.86;100929.53;10470531;28;20418;-74
2022/08/09 21:35:03;;;;;;;3.58;1.65;;;;;;;24.97;30.98;100919.44;10459028;28;20151;-72
2022/08/09 21:40:06;;;;;;;1.40;1.30;;;;;;;24.96;31.70;100932.19;10468689;28;20052;-72
2022/08/09 21:45:12;;;;;;;4.10;1.80;;;;;;;24.84;31.86;100934.66;10458618;28;20071;-75
2022/08/09 21:50:18;;;;;;;2.80;1.90;;;;;;;24.78;32.43;100935.44;10462469;28;20044;-72
2022/08/09 21:55:34;;;;;;;2.05;1.67;;;;;;;24.65;32.40;100936.22;10464788;28;20118;-74
2022/08/09 22:00:35;;;;;;;2.70;1.40;;;;;;;24.60;32.72;100938.69;10467702;28;20053;-74
2022/08/09 22:05:39;;;;;;;2.83;1.45;;;;;;;24.57;32.84;100935.50;10469897;28;20078;-72
2022/08/09 22:10:44;;;;;;;4.28;1.52;;;;;;;24.52;32.91;100936.94;10469907;28;20162;-72
2022/08/09 22:16:06;;;;;;;;;;;;;;;24.45;33.13;100948.81;10470370;28;20048;-72
2022/08/09 22:21:09;;;;;;;2.35;1.50;;;;;;;24.43;33.58;100950.91;10465089;28;19928;-74
2022/08/09 22:26:22;;;;;;;4.35;1.77;;;;;;;24.26;33.71;100947.63;10474421;28;20048;-75
2022/08/09 22:31:38;;;;;;;4.25;2.03;;;;;;;24.21;33.42;100950.94;10467109;28;20047;-73
2022/08/09 22:36:58;;;;;;;2.75;1.60;;;;;;;24.14;34.21;100953.63;10453217;28;20134;-72
2022/08/09 22:41:59;;;;;;;3.93;1.80;;;;;;;24.13;33.88;100949.22;10473081;28;20052;-72
2022/08/09 22:47:01;;;;;;;2.70;1.48;;;;;;;24.06;33.44;100947.47;10470131;28;20058;-75
2022/08/09 22:52:22;;;;;;;3.15;1.60;;;;;;;23.91;34.64;100947.53;10455907;28;20059;-73
2022/08/09 22:57:24;;;;;;;1.60;1.50;;;;;;;23.87;34.80;100949.81;10459112;28;20123;-71
2022/08/09 23:02:36;;;;;;;3.17;1.80;;;;;;;23.80;35.29;100951.59;10473215;28;20054;-73
2022/08/09 23:13:24;;;;;;;4.05;2.10;;;;;;;23.81;34.95;100956.84;10466497;28;20049;-71
2022/08/09 23:18:25;;;;;;;6.15;2.13;;;;;;;23.68;35.01;100945.00;10469857;28;21074;-72
2022/08/09 23:23:26;;;;;;;2.13;1.73;;;;;;;23.67;35.71;100948.75;10476773;28;20135;-73
2022/08/09 23:28:28;;;;;;;2.42;1.77;;;;;;;23.51;35.85;100945.25;10470490;28;20054;-72
2022/08/09 23:33:29;;;;;;;3.58;2.10;;;;;;;23.52;35.75;100955.06;10469524;28;20421;-75
2022/08/09 23:38:31;;;;;;;2.30;1.67;;;;;;;23.57;35.93;100947.19;10473612;28;20784;-74
2022/08/09 23:43:32;;;;;;;4.28;1.70;;;;;;;23.55;35.65;100951.94;10477088;28;20109;-72
2022/08/09 23:48:33;;;;;;;4.55;2.03;;;;;;;23.43;35.98;100942.63;10473316;28;20050;-72
2022/08/09 23:53:35;;;;;;;3.45;2.10;;;;;;;23.37;36.03;100952.38;10473772;28;20051;-73